Skip Navigation Links
NOAA logo - Click to go to the NOAA homepage
NOAA's National Weather Service
Alaska Aviation Weather Unit
  NWS logo - Click to go to the NWS homepage
Left Navbar Graphic     12 AKDT = 20 GMT

   
NOAA is celebrating 200 years of science, service, and stewardship. Visit the NOAA 200th celebration Web site to learn more.
USA.gov is the U.S. Government's official Web portal to all Federal, state and local government Web resources and services.
Facebook
NWS on Facebook

Important Change Regarding the AAWU Web Presence

 

Over the last several months, the AAWU has been working to navigate its webpages to a nationally supported server. Security, as well as other needs, have necessitated the change.  We have been given an extension for the site changeover while we diligently work at addressing feedback received. As of July 14, 2017, aawu.arh.noaa.gov will be discontinued. The new AAWU web address is weather.gov/aawu. It is now live and will run in-parallel with the old site until it is discontinued on July 14, 2017. Please continue to send any feedback or questions regarding the new webpages to nws.ar.aawu.webauthors@noaa.gov.  Thank you for your patience during this time of transition.
AAWU Home :: Display TAF Add Bookmark
SPECI PANW 251403Z AUTO 20009KT 4SM BR OVC002 10/09 A3001 RMK AO2=

SPECI PANW 251418Z AUTO 19008KT 1 3/4SM BR OVC002 10/09 A3001 RMK
     AO2=

SPECI PANW 251421Z AUTO 19008KT 3/4SM BR OVC002 10/09 A3001 RMK AO2=

SPECI PANW 251427Z AUTO 19008KT 1/4SM FG OVC002 10/09 A3001 RMK AO2=

SPECI PANW 251436Z AUTO 19007KT 3/4SM BR OVC002 10/09 A3001 RMK AO2=

SPECI PANW 251439Z AUTO 19006KT 1 1/4SM BR OVC002 10/09 A3001 RMK
     AO2=

SPECI PANW 251442Z AUTO 18005KT 3SM BR OVC002 10/09 A3001 RMK AO2=

METAR PANW 251456Z AUTO 19006KT 7SM OVC002 10/09 A3000 RMK AO2
 SLP178 60000 T01000094 58004=

SPECI PANW 251525Z AUTO 18006KT 1 3/4SM BR OVC002 10/09 A3000 RMK
     AO2=

METAR PANW 251556Z AUTO 17005KT 1 3/4SM BR OVC002 10/10 A3000 RMK
 AO2 SLP175 T01000100=

PANW 251619Z AUTO 18006KT 2SM -RA BR OVC002 10/10 A2999 RMK AO2
     RAB1558 P0000=

SPECI PANW 251646Z AUTO 19007KT 2SM -RA BR OVC002 11/11 A2999 RMK AO2
     RAB1558 P0001=

SPECI PANW 251653Z AUTO 19007KT 1 1/2SM -RA BR OVC002 11/11 A2999 RMK
     AO2 RAB1558 P0002=

METAR PANW 251656Z AUTO 20008KT 1 1/2SM -RA BR OVC002 11/11 A2999 RMK
     AO2 RAB1558 SLP172 P0002 T01060106=

PANW 251725Z AUTO 20006KT 2SM -RA BR OVC002 11/11 A2998 RMK AO2
     P0002=

METAR PANW 251756Z AUTO 21006KT 1 3/4SM -RA BR OVC002 11/11 A2998 RMK
     AO2 SLP169 P0004 60006 T01110106 10111 20100 58005=

SPECI PANW 251815Z AUTO 20007KT 2 1/2SM -RA BR BKN004 OVC012 11/11 A2998
     RMK AO2 P0000=

SPECI PANW 251823Z AUTO 20007KT 10SM -RA BKN004 OVC012 11/11 A2998 RMK
     AO2 CIG 003V007 P0000=

SPECI PANW 251841Z AUTO 19007KT 6SM RA BR OVC006 11/11 A2997 RMK AO2 CIG
     004V011 P0002=

METAR PANW 251856Z AUTO 20008KT 9SM -RA BKN006 BKN012 OVC034 11/11 A2997
     RMK AO2 CIG 004V011 SLP167 P0003 T01110106=

SPECI PANW 251914Z AUTO 20007KT 5SM -RA BR BKN004 BKN011 OVC037 12/11
     A2997 RMK AO2 P0000=

SPECI PANW 251931Z AUTO 19009KT 4SM -RA BR OVC006 12/11 A2997 RMK AO2
     CIG 003V010 P0000=

METAR PANW 251956Z AUTO 19006KT 9SM -RA BKN006 OVC011 12/11 A2997 RMK
     AO2 CIG 004V009 SLP164 P0001 T01170111=

SPECI PANW 252008Z AUTO 19010KT 1 3/4SM RA BR OVC006 12/11 A2996 RMK AO2
     VIS 1 1/4V3 P0001=

SPECI PANW 252015Z AUTO 19009KT 3SM -RA BR OVC006 12/11 A2996 RMK AO2
     P0001=

SPECI PANW 252030Z AUTO 20009KT 5SM -RA BR BKN004 OVC009 12/11 A2996 RMK
     AO2 P0001=


NOAA's National Weather Service
Alaska Aviation Weather Unit
6930 Sand Lake Road
Anchorage, AK 99502-1845
Disclaimer
Credits
Glossary
Privacy Policy
About Us
Career Opportunities
Contact AAWU Internet Services Site last modified: April, 17th 2012